sensor_id;sensor_type;location;lat;lon;timestamp;P1;P2;P0
54869;PMS5003;40756;-37.950;145.008;2022-09-09T00:00:29;0;0;
54869;PMS5003;40756;-37.950;145.008;2022-09-09T00:03:05;2;2;
54869;PMS5003;40756;-37.950;145.008;2022-09-09T00:05:41;1;1;
54869;PMS5003;40756;-37.950;145.008;2022-09-09T00:08:19;3;3;
54869;PMS5003;40756;-37.950;145.008;2022-09-09T00:10:56;4;4;
54869;PMS5003;40756;-37.950;145.008;2022-09-09T00:13:30;3;3;
54869;PMS5003;40756;-37.950;145.008;2022-09-09T00:16:07;1;1;
54869;PMS5003;40756;-37.950;145.008;2022-09-09T00:18:46;2;2;
54869;PMS5003;40756;-37.950;145.008;2022-09-09T00:21:24;1;1;
54869;PMS5003;40756;-37.950;145.008;2022-09-09T00:23:58;2;2;
54869;PMS5003;40756;-37.950;145.008;2022-09-09T00:26:32;1;1;
54869;PMS5003;40756;-37.950;145.008;2022-09-09T00:29:19;0;0;
54869;PMS5003;40756;-37.950;145.008;2022-09-09T00:31:56;1;1;
54869;PMS5003;40756;-37.950;145.008;2022-09-09T00:34:37;2;2;
54869;PMS5003;40756;-37.950;145.008;2022-09-09T00:37:12;2;2;
54869;PMS5003;40756;-37.950;145.008;2022-09-09T00:39:42;1;1;
54869;PMS5003;40756;-37.950;145.008;2022-09-09T00:42:15;1;1;
54869;PMS5003;40756;-37.950;145.008;2022-09-09T00:44:51;1;1;
54869;PMS5003;40756;-37.950;145.008;2022-09-09T00:47:32;1;1;
54869;PMS5003;40756;-37.950;145.008;2022-09-09T00:50:25;0;0;
54869;PMS5003;40756;-37.950;145.008;2022-09-09T00:53:05;1;1;
54869;PMS5003;40756;-37.950;145.008;2022-09-09T00:55:48;1;1;
54869;PMS5003;40756;-37.950;145.008;2022-09-09T00:58:26;1;1;
54869;PMS5003;40756;-37.950;145.008;2022-09-09T01:00:57;0;0;
54869;PMS5003;40756;-37.950;145.008;2022-09-09T01:03:33;3;2;
54869;PMS5003;40756;-37.950;145.008;2022-09-09T01:06:12;2;2;
54869;PMS5003;40756;-37.950;145.008;2022-09-09T01:08:55;1;1;
54869;PMS5003;40756;-37.950;145.008;2022-09-09T01:11:51;1;1;
54869;PMS5003;40756;-37.950;145.008;2022-09-09T01:14:30;0;0;
54869;PMS5003;40756;-37.950;145.008;2022-09-09T01:17:11;0;0;
54869;PMS5003;40756;-37.950;145.008;2022-09-09T01:19:50;1;1;
54869;PMS5003;40756;-37.950;145.008;2022-09-09T01:22:33;0;0;
54869;PMS5003;40756;-37.950;145.008;2022-09-09T01:25:18;0;0;
54869;PMS5003;40756;-37.950;145.008;2022-09-09T01:27:58;0;0;
54869;PMS5003;40756;-37.950;145.008;2022-09-09T01:30:30;1;1;
54869;PMS5003;40756;-37.950;145.008;2022-09-09T01:33:02;0;0;
54869;PMS5003;40756;-37.950;145.008;2022-09-09T01:35:37;5;4;
54869;PMS5003;40756;-37.950;145.008;2022-09-09T01:38:11;2;2;
54869;PMS5003;40756;-37.950;145.008;2022-09-09T01:40:41;0;0;
54869;PMS5003;40756;-37.950;145.008;2022-09-09T01:43:11;1;1;
54869;PMS5003;40756;-37.950;145.008;2022-09-09T01:45:41;2;2;
54869;PMS5003;40756;-37.950;145.008;2022-09-09T01:48:11;2;2;
54869;PMS5003;40756;-37.950;145.008;2022-09-09T01:55:08;1;1;
54869;PMS5003;40756;-37.950;145.008;2022-09-09T01:57:39;1;1;
54869;PMS5003;40756;-37.950;145.008;2022-09-09T02:00:16;1;1;
54869;PMS5003;40756;-37.950;145.008;2022-09-09T02:02:48;1;1;
54869;PMS5003;40756;-37.950;145.008;2022-09-09T02:05:30;1;1;
54869;PMS5003;40756;-37.950;145.008;2022-09-09T02:08:05;1;1;
54869;PMS5003;40756;-37.950;145.008;2022-09-09T02:10:40;0;0;
54869;PMS5003;40756;-37.950;145.008;2022-09-09T02:13:14;1;1;
54869;PMS5003;40756;-37.950;145.008;2022-09-09T02:15:47;1;1;
54869;PMS5003;40756;-37.950;145.008;2022-09-09T02:18:24;1;1;
54869;PMS5003;40756;-37.950;145.008;2022-09-09T02:20:57;1;1;
54869;PMS5003;40756;-37.950;145.008;2022-09-09T02:23:29;0;0;
54869;PMS5003;40756;-37.950;145.008;2022-09-09T02:26:01;1;1;
54869;PMS5003;40756;-37.950;145.008;2022-09-09T02:28:31;0;0;
54869;PMS5003;40756;-37.950;145.008;2022-09-09T02:31:02;1;1;
54869;PMS5003;40756;-37.950;145.008;2022-09-09T02:33:33;1;0;
54869;PMS5003;40756;-37.950;145.008;2022-09-09T02:36:08;1;1;
54869;PMS5003;40756;-37.950;145.008;2022-09-09T02:38:42;0;0;
54869;PMS5003;40756;-37.950;145.008;2022-09-09T02:41:14;0;0;
54869;PMS5003;40756;-37.950;145.008;2022-09-09T02:43:44;2;2;
54869;PMS5003;40756;-37.950;145.008;2022-09-09T02:46:18;0;0;
54869;PMS5003;40756;-37.950;145.008;2022-09-09T02:48:59;0;0;
54869;PMS5003;40756;-37.950;145.008;2022-09-09T02:51:35;0;0;
54869;PMS5003;40756;-37.950;145.008;2022-09-09T02:54:16;0;0;
54869;PMS5003;40756;-37.950;145.008;2022-09-09T02:56:54;0;0;
54869;PMS5003;40756;-37.950;145.008;2022-09-09T02:59:27;1;1;
54869;PMS5003;40756;-37.950;145.008;2022-09-09T03:01:57;4;4;
54869;PMS5003;40756;-37.950;145.008;2022-09-09T03:04:26;8;8;
54869;PMS5003;40756;-37.950;145.008;2022-09-09T03:06:57;2;2;
54869;PMS5003;40756;-37.950;145.008;2022-09-09T03:09:26;1;1;
54869;PMS5003;40756;-37.950;145.008;2022-09-09T03:11:55;0;0;
54869;PMS5003;40756;-37.950;145.008;2022-09-09T03:14:25;2;2;
54869;PMS5003;40756;-37.950;145.008;2022-09-09T03:16:54;0;0;
54869;PMS5003;40756;-37.950;145.008;2022-09-09T03:19:24;1;1;
54869;PMS5003;40756;-37.950;145.008;2022-09-09T03:21:54;1;1;
54869;PMS5003;40756;-37.950;145.008;2022-09-09T03:24:23;2;2;
54869;PMS5003;40756;-37.950;145.008;2022-09-09T03:26:53;1;1;
54869;PMS5003;40756;-37.950;145.008;2022-09-09T03:29:22;1;1;
54869;PMS5003;40756;-37.950;145.008;2022-09-09T03:31:52;0;0;
54869;PMS5003;40756;-37.950;145.008;2022-09-09T03:34:21;1;0;
54869;PMS5003;40756;-37.950;145.008;2022-09-09T03:36:51;2;2;
54869;PMS5003;40756;-37.950;145.008;2022-09-09T03:39:21;1;1;
54869;PMS5003;40756;-37.950;145.008;2022-09-09T03:41:50;0;0;
54869;PMS5003;40756;-37.950;145.008;2022-09-09T03:44:20;1;1;
54869;PMS5003;40756;-37.950;145.008;2022-09-09T03:46:49;0;0;
54869;PMS5003;40756;-37.950;145.008;2022-09-09T03:49:19;0;0;
54869;PMS5003;40756;-37.950;145.008;2022-09-09T03:51:48;0;0;
54869;PMS5003;40756;-37.950;145.008;2022-09-09T03:54:17;0;0;
54869;PMS5003;40756;-37.950;145.008;2022-09-09T03:56:47;1;1;
54869;PMS5003;40756;-37.950;145.008;2022-09-09T03:59:16;0;0;
54869;PMS5003;40756;-37.950;145.008;2022-09-09T04:01:46;1;1;
54869;PMS5003;40756;-37.950;145.008;2022-09-09T04:04:15;0;0;
54869;PMS5003;40756;-37.950;145.008;2022-09-09T04:06:44;1;1;
54869;PMS5003;40756;-37.950;145.008;2022-09-09T04:09:14;0;0;
54869;PMS5003;40756;-37.950;145.008;2022-09-09T04:11:43;1;1;
54869;PMS5003;40756;-37.950;145.008;2022-09-09T04:14:13;0;0;
54869;PMS5003;40756;-37.950;145.008;2022-09-09T04:16:42;1;1;
54869;PMS5003;40756;-37.950;145.008;2022-09-09T04:19:12;0;0;
54869;PMS5003;40756;-37.950;145.008;2022-09-09T04:21:42;0;0;
54869;PMS5003;40756;-37.950;145.008;2022-09-09T04:24:11;0;0;
54869;PMS5003;40756;-37.950;145.008;2022-09-09T04:26:41;1;1;
54869;PMS5003;40756;-37.950;145.008;2022-09-09T04:29:10;1;1;
54869;PMS5003;40756;-37.950;145.008;2022-09-09T04:31:40;2;2;
54869;PMS5003;40756;-37.950;145.008;2022-09-09T04:34:09;1;1;
54869;PMS5003;40756;-37.950;145.008;2022-09-09T04:36:38;0;0;
54869;PMS5003;40756;-37.950;145.008;2022-09-09T04:39:08;1;1;
54869;PMS5003;40756;-37.950;145.008;2022-09-09T04:41:38;0;0;
54869;PMS5003;40756;-37.950;145.008;2022-09-09T04:44:08;1;0;
54869;PMS5003;40756;-37.950;145.008;2022-09-09T04:46:37;0;0;
54869;PMS5003;40756;-37.950;145.008;2022-09-09T04:49:06;8;8;
54869;PMS5003;40756;-37.950;145.008;2022-09-09T04:51:36;0;0;
54869;PMS5003;40756;-37.950;145.008;2022-09-09T04:54:05;1;1;
54869;PMS5003;40756;-37.950;145.008;2022-09-09T04:56:35;3;3;
54869;PMS5003;40756;-37.950;145.008;2022-09-09T04:59:04;0;0;
54869;PMS5003;40756;-37.950;145.008;2022-09-09T05:01:33;0;0;
54869;PMS5003;40756;-37.950;145.008;2022-09-09T05:04:03;1;1;
54869;PMS5003;40756;-37.950;145.008;2022-09-09T05:06:32;0;0;
54869;PMS5003;40756;-37.950;145.008;2022-09-09T05:09:01;1;1;
54869;PMS5003;40756;-37.950;145.008;2022-09-09T05:11:32;1;1;
54869;PMS5003;40756;-37.950;145.008;2022-09-09T05:14:02;1;1;
54869;PMS5003;40756;-37.950;145.008;2022-09-09T05:16:32;0;0;
54869;PMS5003;40756;-37.950;145.008;2022-09-09T05:19:01;0;0;
54869;PMS5003;40756;-37.950;145.008;2022-09-09T05:21:30;0;0;
54869;PMS5003;40756;-37.950;145.008;2022-09-09T05:24:00;0;0;
54869;PMS5003;40756;-37.950;145.008;2022-09-09T05:26:29;0;0;
54869;PMS5003;40756;-37.950;145.008;2022-09-09T05:28:59;1;0;
54869;PMS5003;40756;-37.950;145.008;2022-09-09T05:31:29;0;0;
54869;PMS5003;40756;-37.950;145.008;2022-09-09T05:33:58;0;0;
54869;PMS5003;40756;-37.950;145.008;2022-09-09T05:36:28;0;0;
54869;PMS5003;40756;-37.950;145.008;2022-09-09T05:38:57;2;2;
54869;PMS5003;40756;-37.950;145.008;2022-09-09T05:41:26;0;0;
54869;PMS5003;40756;-37.950;145.008;2022-09-09T05:43:56;1;1;
54869;PMS5003;40756;-37.950;145.008;2022-09-09T05:46:26;0;0;
54869;PMS5003;40756;-37.950;145.008;2022-09-09T05:48:55;1;1;
54869;PMS5003;40756;-37.950;145.008;2022-09-09T05:51:26;8;8;
54869;PMS5003;40756;-37.950;145.008;2022-09-09T05:53:56;1;1;
54869;PMS5003;40756;-37.950;145.008;2022-09-09T05:56:26;0;0;
54869;PMS5003;40756;-37.950;145.008;2022-09-09T05:58:56;0;0;
54869;PMS5003;40756;-37.950;145.008;2022-09-09T06:01:26;0;0;
54869;PMS5003;40756;-37.950;145.008;2022-09-09T06:03:58;0;0;
54869;PMS5003;40756;-37.950;145.008;2022-09-09T06:06:30;0;0;
54869;PMS5003;40756;-37.950;145.008;2022-09-09T06:09:01;0;0;
54869;PMS5003;40756;-37.950;145.008;2022-09-09T06:11:35;2;2;
54869;PMS5003;40756;-37.950;145.008;2022-09-09T06:14:06;0;0;
54869;PMS5003;40756;-37.950;145.008;2022-09-09T06:16:36;0;0;
54869;PMS5003;40756;-37.950;145.008;2022-09-09T06:19:05;0;0;
54869;PMS5003;40756;-37.950;145.008;2022-09-09T06:21:35;1;0;
54869;PMS5003;40756;-37.950;145.008;2022-09-09T06:24:05;8;8;
54869;PMS5003;40756;-37.950;145.008;2022-09-09T06:26:36;30;29;
54869;PMS5003;40756;-37.950;145.008;2022-09-09T06:29:06;15;15;
54869;PMS5003;40756;-37.950;145.008;2022-09-09T06:31:36;1;1;
54869;PMS5003;40756;-37.950;145.008;2022-09-09T06:34:07;0;0;
54869;PMS5003;40756;-37.950;145.008;2022-09-09T06:36:37;0;0;
54869;PMS5003;40756;-37.950;145.008;2022-09-09T06:39:06;1;0;
54869;PMS5003;40756;-37.950;145.008;2022-09-09T06:41:36;0;0;
54869;PMS5003;40756;-37.950;145.008;2022-09-09T06:44:06;0;0;
54869;PMS5003;40756;-37.950;145.008;2022-09-09T06:46:35;1;1;
54869;PMS5003;40756;-37.950;145.008;2022-09-09T06:49:05;1;1;
54869;PMS5003;40756;-37.950;145.008;2022-09-09T06:51:36;0;0;
54869;PMS5003;40756;-37.950;145.008;2022-09-09T06:54:06;1;1;
54869;PMS5003;40756;-37.950;145.008;2022-09-09T06:56:37;4;4;
54869;PMS5003;40756;-37.950;145.008;2022-09-09T06:59:07;8;8;
54869;PMS5003;40756;-37.950;145.008;2022-09-09T07:01:38;1;1;
54869;PMS5003;40756;-37.950;145.008;2022-09-09T07:04:09;0;0;
54869;PMS5003;40756;-37.950;145.008;2022-09-09T07:06:39;1;1;
54869;PMS5003;40756;-37.950;145.008;2022-09-09T07:09:10;0;0;
54869;PMS5003;40756;-37.950;145.008;2022-09-09T07:11:41;1;0;
54869;PMS5003;40756;-37.950;145.008;2022-09-09T07:14:12;1;1;
54869;PMS5003;40756;-37.950;145.008;2022-09-09T07:16:42;1;1;
54869;PMS5003;40756;-37.950;145.008;2022-09-09T07:19:12;2;1;
54869;PMS5003;40756;-37.950;145.008;2022-09-09T07:21:42;1;1;
54869;PMS5003;40756;-37.950;145.008;2022-09-09T07:24:12;1;1;
54869;PMS5003;40756;-37.950;145.008;2022-09-09T07:26:42;1;1;
54869;PMS5003;40756;-37.950;145.008;2022-09-09T07:29:11;1;0;
54869;PMS5003;40756;-37.950;145.008;2022-09-09T07:31:41;0;0;
54869;PMS5003;40756;-37.950;145.008;2022-09-09T07:34:10;1;1;
54869;PMS5003;40756;-37.950;145.008;2022-09-09T07:36:40;3;1;
54869;PMS5003;40756;-37.950;145.008;2022-09-09T07:39:10;1;1;
54869;PMS5003;40756;-37.950;145.008;2022-09-09T07:41:42;1;1;
54869;PMS5003;40756;-37.950;145.008;2022-09-09T07:44:14;2;2;
54869;PMS5003;40756;-37.950;145.008;2022-09-09T07:46:46;3;2;
54869;PMS5003;40756;-37.950;145.008;2022-09-09T07:49:16;2;2;
54869;PMS5003;40756;-37.950;145.008;2022-09-09T07:51:47;1;1;
54869;PMS5003;40756;-37.950;145.008;2022-09-09T07:54:18;1;1;
54869;PMS5003;40756;-37.950;145.008;2022-09-09T07:56:47;2;1;
54869;PMS5003;40756;-37.950;145.008;2022-09-09T07:59:17;2;2;
54869;PMS5003;40756;-37.950;145.008;2022-09-09T08:01:47;2;2;
54869;PMS5003;40756;-37.950;145.008;2022-09-09T08:04:18;5;5;
54869;PMS5003;40756;-37.950;145.008;2022-09-09T08:06:49;6;5;
54869;PMS5003;40756;-37.950;145.008;2022-09-09T08:09:21;4;3;
54869;PMS5003;40756;-37.950;145.008;2022-09-09T08:11:51;2;2;
54869;PMS5003;40756;-37.950;145.008;2022-09-09T08:14:21;2;2;
54869;PMS5003;40756;-37.950;145.008;2022-09-09T08:16:50;2;2;
54869;PMS5003;40756;-37.950;145.008;2022-09-09T08:19:20;3;2;
54869;PMS5003;40756;-37.950;145.008;2022-09-09T08:21:49;2;2;
54869;PMS5003;40756;-37.950;145.008;2022-09-09T08:24:19;2;2;
54869;PMS5003;40756;-37.950;145.008;2022-09-09T08:26:49;2;2;
54869;PMS5003;40756;-37.950;145.008;2022-09-09T08:29:18;2;2;
54869;PMS5003;40756;-37.950;145.008;2022-09-09T08:31:48;2;2;
54869;PMS5003;40756;-37.950;145.008;2022-09-09T08:34:19;4;3;
54869;PMS5003;40756;-37.950;145.008;2022-09-09T08:36:50;1;1;
54869;PMS5003;40756;-37.950;145.008;2022-09-09T08:39:20;3;3;
54869;PMS5003;40756;-37.950;145.008;2022-09-09T08:41:54;2;2;
54869;PMS5003;40756;-37.950;145.008;2022-09-09T08:44:41;4;4;
54869;PMS5003;40756;-37.950;145.008;2022-09-09T08:47:27;5;4;
54869;PMS5003;40756;-37.950;145.008;2022-09-09T08:50:06;4;4;
54869;PMS5003;40756;-37.950;145.008;2022-09-09T08:52:47;4;4;
54869;PMS5003;40756;-37.950;145.008;2022-09-09T08:55:25;4;4;
54869;PMS5003;40756;-37.950;145.008;2022-09-09T08:58:06;4;4;
54869;PMS5003;40756;-37.950;145.008;2022-09-09T09:00:47;2;2;
54869;PMS5003;40756;-37.950;145.008;2022-09-09T09:03:30;2;2;
54869;PMS5003;40756;-37.950;145.008;2022-09-09T09:06:10;0;0;
54869;PMS5003;40756;-37.950;145.008;2022-09-09T09:08:51;2;2;
54869;PMS5003;40756;-37.950;145.008;2022-09-09T09:11:27;2;2;
54869;PMS5003;40756;-37.950;145.008;2022-09-09T09:14:08;1;1;
54869;PMS5003;40756;-37.950;145.008;2022-09-09T09:16:47;1;1;
54869;PMS5003;40756;-37.950;145.008;2022-09-09T09:19:21;2;2;
54869;PMS5003;40756;-37.950;145.008;2022-09-09T09:21:54;2;2;
54869;PMS5003;40756;-37.950;145.008;2022-09-09T09:24:31;2;2;
54869;PMS5003;40756;-37.950;145.008;2022-09-09T09:27:11;2;2;
54869;PMS5003;40756;-37.950;145.008;2022-09-09T09:29:42;3;3;
54869;PMS5003;40756;-37.950;145.008;2022-09-09T09:32:14;1;1;
54869;PMS5003;40756;-37.950;145.008;2022-09-09T09:34:49;1;1;
54869;PMS5003;40756;-37.950;145.008;2022-09-09T09:37:23;3;2;
54869;PMS5003;40756;-37.950;145.008;2022-09-09T09:39:56;1;1;
54869;PMS5003;40756;-37.950;145.008;2022-09-09T09:42:38;2;2;
54869;PMS5003;40756;-37.950;145.008;2022-09-09T09:45:23;2;2;
54869;PMS5003;40756;-37.950;145.008;2022-09-09T09:48:00;4;4;
54869;PMS5003;40756;-37.950;145.008;2022-09-09T09:50:31;7;6;
54869;PMS5003;40756;-37.950;145.008;2022-09-09T09:53:02;11;11;
54869;PMS5003;40756;-37.950;145.008;2022-09-09T09:55:34;11;8;
54869;PMS5003;40756;-37.950;145.008;2022-09-09T09:58:14;10;8;
54869;PMS5003;40756;-37.950;145.008;2022-09-09T10:00:48;10;10;
54869;PMS5003;40756;-37.950;145.008;2022-09-09T10:03:22;12;11;
54869;PMS5003;40756;-37.950;145.008;2022-09-09T10:05:53;14;13;
54869;PMS5003;40756;-37.950;145.008;2022-09-09T10:08:24;11;10;
54869;PMS5003;40756;-37.950;145.008;2022-09-09T10:10:59;13;11;
54869;PMS5003;40756;-37.950;145.008;2022-09-09T10:13:47;10;9;
54869;PMS5003;40756;-37.950;145.008;2022-09-09T10:16:35;8;7;
54869;PMS5003;40756;-37.950;145.008;2022-09-09T10:19:18;8;8;
54869;PMS5003;40756;-37.950;145.008;2022-09-09T10:22:04;7;6;
54869;PMS5003;40756;-37.950;145.008;2022-09-09T10:24:54;8;8;
54869;PMS5003;40756;-37.950;145.008;2022-09-09T10:27:46;7;7;
54869;PMS5003;40756;-37.950;145.008;2022-09-09T10:30:31;8;8;
54869;PMS5003;40756;-37.950;145.008;2022-09-09T10:33:10;7;7;
54869;PMS5003;40756;-37.950;145.008;2022-09-09T10:35:49;9;9;
54869;PMS5003;40756;-37.950;145.008;2022-09-09T10:38:27;6;6;
54869;PMS5003;40756;-37.950;145.008;2022-09-09T10:41:11;9;9;
54869;PMS5003;40756;-37.950;145.008;2022-09-09T10:43:54;7;7;
54869;PMS5003;40756;-37.950;145.008;2022-09-09T10:46:37;8;8;
54869;PMS5003;40756;-37.950;145.008;2022-09-09T10:49:22;8;8;
54869;PMS5003;40756;-37.950;145.008;2022-09-09T10:52:08;9;9;
54869;PMS5003;40756;-37.950;145.008;2022-09-09T10:54:51;5;5;
54869;PMS5003;40756;-37.950;145.008;2022-09-09T10:57:28;6;6;
54869;PMS5003;40756;-37.950;145.008;2022-09-09T11:00:03;6;5;
54869;PMS5003;40756;-37.950;145.008;2022-09-09T11:02:41;5;5;
54869;PMS5003;40756;-37.950;145.008;2022-09-09T11:05:14;6;5;
54869;PMS5003;40756;-37.950;145.008;2022-09-09T11:07:47;5;5;
54869;PMS5003;40756;-37.950;145.008;2022-09-09T11:10:24;6;6;
54869;PMS5003;40756;-37.950;145.008;2022-09-09T11:12:59;5;5;
54869;PMS5003;40756;-37.950;145.008;2022-09-09T11:15:35;6;5;
54869;PMS5003;40756;-37.950;145.008;2022-09-09T11:18:10;11;10;
54869;PMS5003;40756;-37.950;145.008;2022-09-09T11:20:46;5;5;
54869;PMS5003;40756;-37.950;145.008;2022-09-09T11:23:21;6;5;
54869;PMS5003;40756;-37.950;145.008;2022-09-09T11:25:55;5;4;
54869;PMS5003;40756;-37.950;145.008;2022-09-09T11:28:31;6;6;
54869;PMS5003;40756;-37.950;145.008;2022-09-09T11:31:21;4;4;
54869;PMS5003;40756;-37.950;145.008;2022-09-09T11:34:09;3;3;
54869;PMS5003;40756;-37.950;145.008;2022-09-09T11:36:53;4;4;
54869;PMS5003;40756;-37.950;145.008;2022-09-09T11:39:38;6;5;
54869;PMS5003;40756;-37.950;145.008;2022-09-09T11:42:22;5;4;
54869;PMS5003;40756;-37.950;145.008;2022-09-09T11:44:52;6;6;
54869;PMS5003;40756;-37.950;145.008;2022-09-09T11:47:23;6;6;
54869;PMS5003;40756;-37.950;145.008;2022-09-09T11:49:55;5;5;
54869;PMS5003;40756;-37.950;145.008;2022-09-09T11:52:38;4;4;
54869;PMS5003;40756;-37.950;145.008;2022-09-09T11:55:10;4;4;
54869;PMS5003;40756;-37.950;145.008;2022-09-09T11:57:57;4;4;
54869;PMS5003;40756;-37.950;145.008;2022-09-09T12:00:30;7;6;
54869;PMS5003;40756;-37.950;145.008;2022-09-09T12:03:03;5;4;
54869;PMS5003;40756;-37.950;145.008;2022-09-09T12:05:36;4;4;
54869;PMS5003;40756;-37.950;145.008;2022-09-09T12:08:10;4;4;
54869;PMS5003;40756;-37.950;145.008;2022-09-09T12:10:53;3;3;
54869;PMS5003;40756;-37.950;145.008;2022-09-09T12:13:26;2;2;
54869;PMS5003;40756;-37.950;145.008;2022-09-09T12:15:56;2;2;
54869;PMS5003;40756;-37.950;145.008;2022-09-09T12:18:31;2;2;
54869;PMS5003;40756;-37.950;145.008;2022-09-09T12:21:03;2;2;
54869;PMS5003;40756;-37.950;145.008;2022-09-09T12:23:44;2;2;
54869;PMS5003;40756;-37.950;145.008;2022-09-09T12:26:23;1;1;
54869;PMS5003;40756;-37.950;145.008;2022-09-09T12:29:03;2;2;
54869;PMS5003;40756;-37.950;145.008;2022-09-09T12:31:41;2;2;
54869;PMS5003;40756;-37.950;145.008;2022-09-09T12:34:20;1;1;
54869;PMS5003;40756;-37.950;145.008;2022-09-09T12:37:06;1;1;
54869;PMS5003;40756;-37.950;145.008;2022-09-09T12:39:45;1;1;
54869;PMS5003;40756;-37.950;145.008;2022-09-09T12:42:21;2;2;
54869;PMS5003;40756;-37.950;145.008;2022-09-09T12:44:52;1;1;
54869;PMS5003;40756;-37.950;145.008;2022-09-09T12:47:24;3;2;
54869;PMS5003;40756;-37.950;145.008;2022-09-09T12:50:00;1;1;
54869;PMS5003;40756;-37.950;145.008;2022-09-09T12:52:31;0;0;
54869;PMS5003;40756;-37.950;145.008;2022-09-09T12:55:03;1;1;
54869;PMS5003;40756;-37.950;145.008;2022-09-09T12:57:35;0;0;
54869;PMS5003;40756;-37.950;145.008;2022-09-09T13:00:10;1;1;
54869;PMS5003;40756;-37.950;145.008;2022-09-09T13:02:47;1;1;
54869;PMS5003;40756;-37.950;145.008;2022-09-09T13:05:21;0;0;
54869;PMS5003;40756;-37.950;145.008;2022-09-09T13:07:59;1;1;
54869;PMS5003;40756;-37.950;145.008;2022-09-09T13:10:31;1;1;
54869;PMS5003;40756;-37.950;145.008;2022-09-09T13:13:05;8;7;
54869;PMS5003;40756;-37.950;145.008;2022-09-09T13:15:48;1;0;
54869;PMS5003;40756;-37.950;145.008;2022-09-09T13:18:21;1;0;
54869;PMS5003;40756;-37.950;145.008;2022-09-09T13:20:54;1;1;
54869;PMS5003;40756;-37.950;145.008;2022-09-09T13:23:26;0;0;
54869;PMS5003;40756;-37.950;145.008;2022-09-09T13:25:58;1;1;
54869;PMS5003;40756;-37.950;145.008;2022-09-09T13:28:29;2;2;
54869;PMS5003;40756;-37.950;145.008;2022-09-09T13:30:59;1;1;
54869;PMS5003;40756;-37.950;145.008;2022-09-09T13:33:31;1;1;
54869;PMS5003;40756;-37.950;145.008;2022-09-09T13:36:02;0;0;
54869;PMS5003;40756;-37.950;145.008;2022-09-09T13:38:35;1;1;
54869;PMS5003;40756;-37.950;145.008;2022-09-09T13:41:07;1;1;
54869;PMS5003;40756;-37.950;145.008;2022-09-09T13:43:38;2;1;
54869;PMS5003;40756;-37.950;145.008;2022-09-09T13:46:25;2;2;
54869;PMS5003;40756;-37.950;145.008;2022-09-09T13:49:00;2;1;
54869;PMS5003;40756;-37.950;145.008;2022-09-09T13:51:46;2;2;
54869;PMS5003;40756;-37.950;145.008;2022-09-09T13:54:17;2;2;
54869;PMS5003;40756;-37.950;145.008;2022-09-09T13:56:48;4;3;
54869;PMS5003;40756;-37.950;145.008;2022-09-09T13:59:19;3;2;
54869;PMS5003;40756;-37.950;145.008;2022-09-09T14:01:48;2;2;
54869;PMS5003;40756;-37.950;145.008;2022-09-09T14:04:18;3;3;
54869;PMS5003;40756;-37.950;145.008;2022-09-09T14:06:48;3;3;
54869;PMS5003;40756;-37.950;145.008;2022-09-09T14:09:18;2;2;
54869;PMS5003;40756;-37.950;145.008;2022-09-09T14:11:47;2;2;
54869;PMS5003;40756;-37.950;145.008;2022-09-09T14:14:17;4;4;
54869;PMS5003;40756;-37.950;145.008;2022-09-09T14:16:47;4;4;
54869;PMS5003;40756;-37.950;145.008;2022-09-09T14:19:16;5;4;
54869;PMS5003;40756;-37.950;145.008;2022-09-09T14:21:46;4;4;
54869;PMS5003;40756;-37.950;145.008;2022-09-09T14:24:16;6;6;
54869;PMS5003;40756;-37.950;145.008;2022-09-09T14:26:45;6;6;
54869;PMS5003;40756;-37.950;145.008;2022-09-09T14:29:15;8;7;
54869;PMS5003;40756;-37.950;145.008;2022-09-09T14:31:45;6;5;
54869;PMS5003;40756;-37.950;145.008;2022-09-09T14:34:14;6;5;
54869;PMS5003;40756;-37.950;145.008;2022-09-09T14:36:44;9;7;
54869;PMS5003;40756;-37.950;145.008;2022-09-09T14:39:14;6;6;
54869;PMS5003;40756;-37.950;145.008;2022-09-09T14:41:43;4;4;
54869;PMS5003;40756;-37.950;145.008;2022-09-09T14:44:13;5;5;
54869;PMS5003;40756;-37.950;145.008;2022-09-09T14:46:42;6;5;
54869;PMS5003;40756;-37.950;145.008;2022-09-09T14:49:12;4;4;
54869;PMS5003;40756;-37.950;145.008;2022-09-09T14:51:42;3;3;
54869;PMS5003;40756;-37.950;145.008;2022-09-09T14:54:11;2;2;
54869;PMS5003;40756;-37.950;145.008;2022-09-09T14:56:41;3;3;
54869;PMS5003;40756;-37.950;145.008;2022-09-09T14:59:11;2;2;
54869;PMS5003;40756;-37.950;145.008;2022-09-09T15:01:40;2;2;
54869;PMS5003;40756;-37.950;145.008;2022-09-09T15:04:11;2;1;
54869;PMS5003;40756;-37.950;145.008;2022-09-09T15:06:42;1;1;
54869;PMS5003;40756;-37.950;145.008;2022-09-09T15:09:12;2;2;
54869;PMS5003;40756;-37.950;145.008;2022-09-09T15:11:42;1;1;
54869;PMS5003;40756;-37.950;145.008;2022-09-09T15:14:11;1;1;
54869;PMS5003;40756;-37.950;145.008;2022-09-09T15:16:41;1;1;
54869;PMS5003;40756;-37.950;145.008;2022-09-09T15:19:11;2;2;
54869;PMS5003;40756;-37.950;145.008;2022-09-09T15:21:40;1;1;
54869;PMS5003;40756;-37.950;145.008;2022-09-09T15:24:10;2;2;
54869;PMS5003;40756;-37.950;145.008;2022-09-09T15:26:39;0;0;
54869;PMS5003;40756;-37.950;145.008;2022-09-09T15:29:09;1;1;
54869;PMS5003;40756;-37.950;145.008;2022-09-09T15:31:39;2;2;
54869;PMS5003;40756;-37.950;145.008;2022-09-09T15:34:08;1;1;
54869;PMS5003;40756;-37.950;145.008;2022-09-09T15:36:39;1;1;
54869;PMS5003;40756;-37.950;145.008;2022-09-09T15:39:09;2;2;
54869;PMS5003;40756;-37.950;145.008;2022-09-09T15:41:40;1;1;
54869;PMS5003;40756;-37.950;145.008;2022-09-09T15:44:10;1;1;
54869;PMS5003;40756;-37.950;145.008;2022-09-09T15:46:40;2;2;
54869;PMS5003;40756;-37.950;145.008;2022-09-09T15:49:12;3;3;
54869;PMS5003;40756;-37.950;145.008;2022-09-09T15:51:43;2;2;
54869;PMS5003;40756;-37.950;145.008;2022-09-09T15:54:14;2;1;
54869;PMS5003;40756;-37.950;145.008;2022-09-09T15:56:46;2;2;
54869;PMS5003;40756;-37.950;145.008;2022-09-09T15:59:17;2;2;
54869;PMS5003;40756;-37.950;145.008;2022-09-09T16:01:47;1;1;
54869;PMS5003;40756;-37.950;145.008;2022-09-09T16:04:17;1;1;
54869;PMS5003;40756;-37.950;145.008;2022-09-09T16:06:47;0;0;
54869;PMS5003;40756;-37.950;145.008;2022-09-09T16:09:18;2;2;
54869;PMS5003;40756;-37.950;145.008;2022-09-09T16:11:48;3;3;
54869;PMS5003;40756;-37.950;145.008;2022-09-09T16:14:18;2;2;
54869;PMS5003;40756;-37.950;145.008;2022-09-09T16:16:47;3;3;
54869;PMS5003;40756;-37.950;145.008;2022-09-09T16:19:17;4;4;
54869;PMS5003;40756;-37.950;145.008;2022-09-09T16:21:47;4;4;
54869;PMS5003;40756;-37.950;145.008;2022-09-09T16:24:18;4;4;
54869;PMS5003;40756;-37.950;145.008;2022-09-09T16:26:48;4;4;
54869;PMS5003;40756;-37.950;145.008;2022-09-09T16:29:20;2;2;
54869;PMS5003;40756;-37.950;145.008;2022-09-09T16:31:50;4;4;
54869;PMS5003;40756;-37.950;145.008;2022-09-09T16:34:19;4;4;
54869;PMS5003;40756;-37.950;145.008;2022-09-09T16:36:49;3;3;
54869;PMS5003;40756;-37.950;145.008;2022-09-09T16:39:19;4;4;
54869;PMS5003;40756;-37.950;145.008;2022-09-09T16:41:49;5;5;
54869;PMS5003;40756;-37.950;145.008;2022-09-09T16:44:19;4;4;